Time;durP1;ratioP1;P1;durP2;ratioP2;P2;SDS_P1;SDS_P2;PMS_P1;PMS_P2;Temp;Humidity;BMP_temperature;BMP_pressure;BME280_temperature;BME280_humidity;BME280_pressure;Samples;Min_cycle;Max_cycle;Signal;HPM_P1;HPM_P2
2023/11/08 00:00:00;;;;;;;8.88;4.22;;;;;;;11.01;67.62;99189.38;4952599;28;20114;-76
2023/11/08 00:02:27;;;;;;;9.95;4.18;;;;;;;11.01;67.67;99181.47;4970391;28;20511;-77
2023/11/08 00:04:53;;;;;;;6.13;4.03;;;;;;;11.01;67.83;99192.00;4952000;28;20047;-76
2023/11/08 00:07:20;;;;;;;7.32;4.47;;;;;;;11.02;67.63;99191.06;4960393;28;20050;-78
2023/11/08 00:09:47;;;;;;;10.07;4.60;;;;;;;11.03;67.51;99186.66;4960633;28;20110;-79
2023/11/08 00:12:13;;;;;;;7.18;4.28;;;;;;;11.02;67.67;99190.22;4965262;28;20057;-76
2023/11/08 00:14:43;;;;;;;6.60;4.50;;;;;;;11.03;67.64;99191.91;4970711;28;20114;-78
2023/11/08 00:17:10;;;;;;;6.00;4.00;;;;;;;11.02;67.64;99193.69;4965532;28;20500;-76
2023/11/08 00:19:37;;;;;;;10.75;4.53;;;;;;;11.02;67.65;99193.69;4951598;28;20059;-76
2023/11/08 00:22:03;;;;;;;6.60;4.63;;;;;;;11.01;67.65;99192.00;4955316;28;20114;-77
2023/11/08 00:24:30;;;;;;;10.57;4.90;;;;;;;11.02;67.68;99209.50;4967891;28;20487;-76
2023/11/08 00:26:56;;;;;;;7.03;4.40;;;;;;;11.01;67.42;99202.56;4952474;28;20420;-77
2023/11/08 00:29:23;;;;;;;6.78;4.30;;;;;;;11.02;67.63;99204.22;4952338;28;20059;-77
2023/11/08 00:31:53;;;;;;;7.40;4.63;;;;;;;11.02;67.70;99203.38;4957730;28;20094;-77
2023/11/08 00:34:20;;;;;;;7.47;4.15;;;;;;;11.02;67.59;99209.50;4963759;28;20047;-76
2023/11/08 00:36:48;;;;;;;6.93;4.60;;;;;;;11.03;67.75;99211.19;4952579;28;20040;-77
2023/11/08 00:39:17;;;;;;;10.52;4.22;;;;;;;11.04;67.76;99217.31;4952360;28;20054;-76
2023/11/08 00:41:45;;;;;;;8.20;4.93;;;;;;;11.05;67.76;99208.44;4954017;28;20492;-76
2023/11/08 00:44:12;;;;;;;7.25;4.63;;;;;;;11.05;67.68;99201.41;4970978;28;20503;-76
2023/11/08 00:46:39;;;;;;;7.80;4.75;;;;;;;11.05;67.68;99206.66;4959567;28;20221;-76
2023/11/08 00:49:06;;;;;;;7.80;5.00;;;;;;;11.06;67.73;99210.97;4963975;28;20051;-76
2023/11/08 00:51:33;;;;;;;8.68;4.90;;;;;;;11.06;67.80;99221.50;4955250;28;20061;-76
2023/11/08 00:54:00;;;;;;;9.75;4.43;;;;;;;11.06;67.78;99220.66;4966653;28;20105;-78
2023/11/08 00:56:27;;;;;;;8.75;4.65;;;;;;;11.07;67.63;99212.66;4955537;28;20059;-78
2023/11/08 00:58:54;;;;;;;7.32;4.93;;;;;;;11.07;67.62;99202.13;4954582;28;20090;-77
2023/11/08 01:01:22;;;;;;;6.70;4.72;;;;;;;11.07;67.69;99202.13;4954314;28;20106;-76
2023/11/08 01:03:54;;;;;;;6.47;4.38;;;;;;;11.08;67.73;99208.25;4968099;28;20053;-77
2023/11/08 01:06:23;;;;;;;10.60;4.93;;;;;;;11.11;67.84;99208.03;4958155;28;20074;-76
2023/11/08 01:08:50;;;;;;;9.85;4.75;;;;;;;11.13;67.84;99221.09;4973799;28;20051;-78
2023/11/08 01:11:17;;;;;;;8.00;4.55;;;;;;;11.13;67.62;99221.09;4974195;28;20063;-76
2023/11/08 01:13:45;;;;;;;7.57;4.82;;;;;;;11.14;67.83;99214.88;4966442;28;20051;-76
2023/11/08 01:16:13;;;;;;;12.35;4.25;;;;;;;11.14;67.91;99228.88;4974406;28;20050;-77
2023/11/08 01:18:41;;;;;;;7.13;4.93;;;;;;;11.15;67.87;99235.00;4964836;28;20046;-76
2023/11/08 01:21:07;;;;;;;6.72;4.55;;;;;;;11.15;67.93;99240.28;4955564;28;20070;-76
2023/11/08 01:23:36;;;;;;;7.30;4.72;;;;;;;11.16;67.88;99236.69;4963166;28;20567;-76
2023/11/08 01:26:03;;;;;;;9.73;4.70;;;;;;;11.16;67.89;99234.06;4962644;28;20073;-76
2023/11/08 01:28:30;;;;;;;8.48;5.22;;;;;;;11.15;67.79;99241.13;4953799;28;20110;-77
2023/11/08 01:30:57;;;;;;;7.47;5.07;;;;;;;11.14;67.90;99238.59;4954940;28;20130;-78
2023/11/08 01:33:23;;;;;;;7.22;4.72;;;;;;;11.12;67.74;99232.56;4955209;28;20058;-78
2023/11/08 01:35:50;;;;;;;6.00;4.80;;;;;;;11.08;67.82;99230.16;4954783;28;20459;-76
2023/11/08 01:38:16;;;;;;;7.35;4.43;;;;;;;11.05;67.87;99232.16;4955672;28;20141;-76
2023/11/08 01:40:43;;;;;;;9.05;4.90;;;;;;;11.01;67.86;99228.88;4954791;28;20103;-76
2023/11/08 01:43:26;;;;;;;6.55;4.55;;;;;;;10.93;68.29;99220.66;4954683;28;20459;-79
2023/11/08 01:46:04;;;;;;;6.93;4.93;;;;;;;10.92;67.99;99229.50;4955128;28;20055;-77
2023/11/08 01:48:32;;;;;;;9.52;4.80;;;;;;;10.89;68.03;99224.44;4957977;28;20105;-76
2023/11/08 01:50:59;;;;;;;7.28;4.97;;;;;;;10.85;68.16;99225.59;4955180;28;20051;-78
2023/11/08 01:53:28;;;;;;;7.40;5.13;;;;;;;10.81;68.13;99230.22;4959346;28;20117;-76
2023/11/08 01:55:56;;;;;;;7.18;4.47;;;;;;;10.76;68.68;99220.00;4957883;28;20105;-76
2023/11/08 01:58:23;;;;;;;8.68;4.88;;;;;;;10.76;68.72;99227.88;4966779;28;20051;-76
2023/11/08 02:00:51;;;;;;;9.15;5.03;;;;;;;10.73;68.96;99233.34;4952777;28;20110;-78
2023/11/08 02:03:18;;;;;;;7.50;4.70;;;;;;;10.71;68.88;99232.63;4965407;28;20759;-75
2023/11/08 02:05:44;;;;;;;8.45;5.25;;;;;;;10.69;69.03;99224.81;4956060;28;20090;-76
2023/11/08 02:08:11;;;;;;;6.53;5.03;;;;;;;10.71;68.94;99226.50;4954302;28;20083;-75
2023/11/08 02:10:39;;;;;;;8.55;5.00;;;;;;;10.69;69.10;99226.59;4953271;28;20587;-77
2023/11/08 02:13:07;;;;;;;9.63;5.05;;;;;;;10.68;69.39;99244.19;4954452;28;20043;-78
2023/11/08 02:15:42;;;;;;;9.63;5.47;;;;;;;10.65;69.70;99244.38;4954013;28;20057;-77
2023/11/08 02:18:10;;;;;;;8.00;4.72;;;;;;;10.68;69.37;99238.06;4954044;28;20063;-76
2023/11/08 02:20:37;;;;;;;7.55;4.78;;;;;;;10.69;69.40;99239.75;4953874;28;20051;-76
2023/11/08 02:23:04;;;;;;;7.47;5.07;;;;;;;10.69;69.58;99245.03;4954343;28;20158;-78
2023/11/08 02:25:31;;;;;;;10.32;5.35;;;;;;;10.71;69.44;99242.28;4953787;28;20055;-81
2023/11/08 02:27:58;;;;;;;9.98;5.32;;;;;;;10.72;69.67;99233.47;4954632;28;20488;-76
2023/11/08 02:30:25;;;;;;;9.10;4.90;;;;;;;10.73;69.58;99227.25;4953169;28;20048;-76
2023/11/08 02:32:52;;;;;;;6.38;4.82;;;;;;;10.74;69.64;99235.06;4971476;28;20058;-76
2023/11/08 02:35:19;;;;;;;9.52;5.10;;;;;;;10.74;69.57;99227.16;4972505;28;20073;-77
2023/11/08 02:37:48;;;;;;;7.07;5.30;;;;;;;10.74;69.50;99237.69;4971050;28;20121;-77
2023/11/08 02:40:14;;;;;;;8.55;5.40;;;;;;;10.74;69.51;99232.44;4970992;28;20599;-76
2023/11/08 02:42:48;;;;;;;6.80;5.13;;;;;;;10.73;69.93;99230.72;4970776;28;20058;-77
2023/11/08 02:45:14;;;;;;;9.10;5.22;;;;;;;10.75;69.87;99231.47;4972361;28;20412;-76
2023/11/08 02:47:41;;;;;;;10.13;5.22;;;;;;;10.74;69.71;99235.06;4970783;28;20055;-77
2023/11/08 02:50:08;;;;;;;9.25;5.68;;;;;;;10.75;69.66;99236.75;4960251;28;20415;-76
2023/11/08 02:52:35;;;;;;;8.77;5.25;;;;;;;10.75;69.77;99239.38;4957669;28;20051;-76
2023/11/08 02:55:03;;;;;;;8.68;5.03;;;;;;;10.74;69.86;99240.31;4961815;28;20055;-77
2023/11/08 02:57:30;;;;;;;12.50;6.90;;;;;;;10.73;69.79;99230.72;4955263;28;20512;-76
2023/11/08 02:59:57;;;;;;;12.60;5.95;;;;;;;10.75;69.79;99241.16;4954086;28;20058;-79
2023/11/08 03:02:24;;;;;;;10.68;5.90;;;;;;;10.74;70.06;99235.06;4969482;28;20047;-76
2023/11/08 03:04:50;;;;;;;8.82;5.70;;;;;;;10.76;70.10;99238.41;4955679;28;20051;-76
2023/11/08 03:07:19;;;;;;;10.77;6.40;;;;;;;10.76;70.12;99243.69;4954001;28;20051;-77
2023/11/08 03:09:45;;;;;;;9.15;5.70;;;;;;;10.77;69.99;99236.63;4955270;28;20122;-77
2023/11/08 03:12:12;;;;;;;11.50;5.95;;;;;;;10.78;70.31;99244.44;4958902;28;20090;-80
2023/11/08 03:14:39;;;;;;;10.75;6.65;;;;;;;10.79;69.88;99238.22;4953830;28;20055;-76
2023/11/08 03:17:06;;;;;;;10.10;6.18;;;;;;;10.80;69.89;99241.69;4953707;28;20055;-77
2023/11/08 03:19:32;;;;;;;11.60;6.13;;;;;;;10.80;70.14;99252.22;4952356;28;20130;-79
2023/11/08 03:22:00;;;;;;;10.95;6.80;;;;;;;10.80;70.18;99242.53;4953381;28;20055;-77
2023/11/08 03:24:27;;;;;;;7.18;6.00;;;;;;;10.81;70.21;99240.75;4960455;28;20051;-76
2023/11/08 03:26:54;;;;;;;10.48;7.13;;;;;;;10.80;70.05;99247.81;4953498;28;20047;-76
2023/11/08 03:29:20;;;;;;;11.68;6.60;;;;;;;10.82;70.44;99234.53;4957550;28;20117;-78
2023/11/08 03:31:47;;;;;;;11.07;6.15;;;;;;;10.81;70.37;99241.59;4953487;28;20059;-76
2023/11/08 03:34:13;;;;;;;9.38;6.28;;;;;;;10.84;70.29;99243.16;4958328;28;20070;-78
2023/11/08 03:36:42;;;;;;;10.95;6.22;;;;;;;10.86;70.11;99243.06;4958555;28;20134;-76
2023/11/08 03:39:09;;;;;;;8.13;6.35;;;;;;;10.86;70.23;99240.44;4953371;28;20051;-77
2023/11/08 03:41:36;;;;;;;8.55;6.30;;;;;;;10.86;70.40;99240.44;4953340;28;20051;-76
2023/11/08 03:44:03;;;;;;;10.57;6.68;;;;;;;10.86;70.26;99251.81;4965315;28;20043;-76
2023/11/08 03:46:30;;;;;;;8.98;6.35;;;;;;;10.87;70.03;99244.78;4957680;28;20146;-77
2023/11/08 03:48:58;;;;;;;8.75;6.75;;;;;;;10.86;70.11;99253.59;4953591;28;20083;-76
2023/11/08 03:51:28;;;;;;;10.15;6.88;;;;;;;10.82;70.33;99253.81;4951931;28;20416;-76
2023/11/08 03:53:55;;;;;;;8.52;6.30;;;;;;;10.82;70.04;99245.94;4961041;28;20061;-77
2023/11/08 03:56:22;;;;;;;10.38;6.75;;;;;;;10.81;69.96;99246.03;4953084;28;20519;-75
2023/11/08 03:58:49;;;;;;;8.52;6.30;;;;;;;10.80;70.23;99252.22;4953306;28;20381;-76
2023/11/08 04:01:16;;;;;;;10.68;6.85;;;;;;;10.78;70.13;99247.06;4953160;28;20051;-76
2023/11/08 04:03:42;;;;;;;11.27;6.93;;;;;;;10.77;70.15;99249.81;4957709;28;20129;-76
2023/11/08 04:06:10;;;;;;;11.35;7.95;;;;;;;10.76;70.09;99246.31;4960672;28;20087;-76
2023/11/08 04:08:36;;;;;;;14.30;7.93;;;;;;;10.74;70.25;99253.50;4953071;28;20073;-77
2023/11/08 04:11:03;;;;;;;10.60;7.28;;;;;;;10.75;70.25;99243.78;4955615;28;20054;-77
2023/11/08 04:13:30;;;;;;;15.35;7.43;;;;;;;10.75;70.20;99260.44;4965637;28;20055;-76
2023/11/08 04:15:56;;;;;;;15.63;7.47;;;;;;;10.75;70.19;99254.31;4952094;28;20512;-75
2023/11/08 04:18:23;;;;;;;11.10;7.75;;;;;;;10.75;70.27;99259.56;4951829;28;20047;-76
2023/11/08 04:20:50;;;;;;;8.38;6.63;;;;;;;10.76;70.37;99256.84;4953303;28;20066;-76
2023/11/08 04:23:16;;;;;;;10.13;6.95;;;;;;;10.76;70.62;99251.56;4968530;28;20059;-78
2023/11/08 04:25:44;;;;;;;10.40;7.43;;;;;;;10.78;70.50;99265.50;4972329;28;20121;-76
2023/11/08 04:28:11;;;;;;;11.20;7.60;;;;;;;10.78;70.27;99265.50;4975646;28;20077;-76
2023/11/08 04:30:37;;;;;;;10.35;7.20;;;;;;;10.80;70.38;99271.50;4967936;28;20484;-76
2023/11/08 04:33:04;;;;;;;10.63;7.28;;;;;;;10.80;70.30;99266.22;4972108;28;20231;-78
2023/11/08 04:35:31;;;;;;;14.07;7.57;;;;;;;10.80;70.29;99274.13;4956537;28;20091;-76
2023/11/08 04:37:57;;;;;;;8.85;6.88;;;;;;;10.80;70.37;99271.50;4968865;28;20054;-76
2023/11/08 04:40:28;;;;;;;11.02;7.28;;;;;;;10.80;69.99;99274.13;4961869;28;20724;-77
2023/11/08 04:42:54;;;;;;;10.32;8.38;;;;;;;10.79;70.25;99271.59;4956696;28;20497;-76
2023/11/08 04:45:21;;;;;;;10.45;7.90;;;;;;;10.80;70.29;99262.75;4956484;28;20059;-78
2023/11/08 04:47:48;;;;;;;10.27;7.07;;;;;;;10.79;70.13;99269.81;4965116;28;20054;-78
2023/11/08 04:50:14;;;;;;;10.38;7.57;;;;;;;10.80;70.13;99265.38;4974992;28;20050;-76
2023/11/08 04:52:41;;;;;;;13.02;8.10;;;;;;;10.78;70.11;99257.59;4958931;28;20043;-76
2023/11/08 04:55:08;;;;;;;13.55;8.00;;;;;;;10.78;69.94;99265.50;4973733;28;20102;-77
2023/11/08 04:57:34;;;;;;;10.68;7.03;;;;;;;10.75;69.65;99263.06;4973222;28;20051;-76
2023/11/08 05:00:02;;;;;;;11.38;7.30;;;;;;;10.73;69.84;99262.31;4965224;28;20047;-77
2023/11/08 05:02:28;;;;;;;12.50;6.90;;;;;;;10.72;69.88;99267.69;4966017;28;20050;-77
2023/11/08 05:04:55;;;;;;;11.68;7.43;;;;;;;10.71;69.81;99273.88;4958443;28;20051;-76
2023/11/08 05:07:22;;;;;;;10.20;7.00;;;;;;;10.68;69.95;99275.78;4956055;28;20055;-76
2023/11/08 05:09:49;;;;;;;9.38;6.78;;;;;;;10.66;70.04;99275.03;4962758;28;20527;-77
2023/11/08 05:12:17;;;;;;;9.40;7.78;;;;;;;10.67;70.19;99278.50;4955659;28;20054;-76
2023/11/08 05:14:44;;;;;;;12.98;7.05;;;;;;;10.67;70.17;99278.50;4955824;28;20051;-77
2023/11/08 05:17:11;;;;;;;11.70;7.47;;;;;;;10.66;70.33;99277.66;4955834;28;20047;-76
2023/11/08 05:19:37;;;;;;;11.40;6.70;;;;;;;10.66;70.44;99292.63;4966938;28;20051;-76
2023/11/08 05:22:04;;;;;;;9.82;7.22;;;;;;;10.64;70.58;99284.81;4959026;28;20046;-76
2023/11/08 05:24:31;;;;;;;10.63;7.15;;;;;;;10.65;70.48;99275.16;4961435;28;20052;-76
2023/11/08 05:26:58;;;;;;;10.48;7.35;;;;;;;10.64;70.80;99269.03;4955450;28;20039;-79
2023/11/08 05:29:25;;;;;;;12.07;7.53;;;;;;;10.67;70.76;99260.09;4959034;28;20042;-78
2023/11/08 05:31:51;;;;;;;12.73;8.23;;;;;;;10.66;70.77;99271.56;4965914;28;20047;-76
2023/11/08 05:34:20;;;;;;;11.93;7.65;;;;;;;10.67;70.70;99282.00;4955471;28;20050;-76
2023/11/08 05:36:47;;;;;;;13.18;7.80;;;;;;;10.67;70.58;99279.38;4955253;28;20444;-76
2023/11/08 05:39:21;;;;;;;14.13;8.25;;;;;;;10.68;70.83;99282.81;4954553;28;20051;-77
2023/11/08 05:41:52;;;;;;;13.05;8.48;;;;;;;10.69;70.80;99287.13;4970433;28;20109;-78
2023/11/08 05:44:19;;;;;;;13.45;8.85;;;;;;;10.69;70.85;99292.41;4962359;28;20122;-79
2023/11/08 05:46:46;;;;;;;14.77;8.75;;;;;;;10.72;71.00;99288.75;4960532;28;20455;-77
2023/11/08 05:49:12;;;;;;;13.13;8.52;;;;;;;10.72;71.11;99296.66;4963163;28;20162;-76
2023/11/08 05:51:39;;;;;;;17.20;9.30;;;;;;;10.72;71.07;99302.75;4953753;28;20047;-79
2023/11/08 05:54:06;;;;;;;12.88;7.88;;;;;;;10.73;70.90;99309.69;4960410;28;20661;-77
2023/11/08 05:56:32;;;;;;;11.57;7.93;;;;;;;10.73;70.85;99306.22;4961323;28;20055;-76
2023/11/08 05:58:59;;;;;;;12.65;7.32;;;;;;;10.73;70.77;99307.06;4963644;28;20638;-77
2023/11/08 06:01:26;;;;;;;13.15;7.82;;;;;;;10.74;71.06;99314.03;4966182;28;20412;-77
2023/11/08 06:03:52;;;;;;;12.73;8.10;;;;;;;10.75;71.34;99301.69;4973461;28;20054;-77
2023/11/08 06:06:19;;;;;;;11.57;7.57;;;;;;;10.76;70.90;99306.03;4971955;28;20053;-76
2023/11/08 06:08:48;;;;;;;10.32;7.78;;;;;;;10.77;71.12;99305.91;4973648;28;20105;-76
2023/11/08 06:11:16;;;;;;;10.63;8.05;;;;;;;10.77;70.98;99305.91;4972977;28;20047;-76
2023/11/08 06:13:43;;;;;;;11.43;7.38;;;;;;;10.79;70.90;99306.69;4960020;28;20063;-79
2023/11/08 06:16:10;;;;;;;12.05;7.90;;;;;;;10.79;70.82;99303.19;4961120;28;20059;-76
2023/11/08 06:18:39;;;;;;;12.98;7.63;;;;;;;10.78;71.04;99307.63;4953469;28;20672;-75
2023/11/08 06:21:05;;;;;;;14.55;7.60;;;;;;;10.79;71.10;99311.94;4954430;28;20043;-77
2023/11/08 06:23:32;;;;;;;14.20;8.10;;;;;;;10.79;71.03;99314.56;4954910;28;20522;-77
2023/11/08 06:25:59;;;;;;;11.88;7.53;;;;;;;10.80;70.92;99313.63;4961678;28;20047;-77
2023/11/08 06:28:25;;;;;;;13.95;6.82;;;;;;;10.79;71.00;99314.56;4954614;28;20046;-77
2023/11/08 06:30:53;;;;;;;11.27;7.47;;;;;;;10.79;70.97;99319.84;4961785;28;20102;-77
2023/11/08 06:33:20;;;;;;;11.05;6.78;;;;;;;10.80;71.06;99326.78;4955018;28;20047;-76
2023/11/08 06:35:47;;;;;;;14.35;8.10;;;;;;;10.80;71.12;99323.28;4962822;28;20057;-76
2023/11/08 06:38:14;;;;;;;8.15;6.70;;;;;;;10.81;71.01;99332.91;4972381;28;20495;-81
2023/11/08 06:40:40;;;;;;;10.27;6.85;;;;;;;10.82;71.16;99329.31;4972330;28;20042;-77
2023/11/08 06:43:07;;;;;;;9.18;6.80;;;;;;;10.84;71.10;99334.50;4970896;28;20117;-77
2023/11/08 06:45:34;;;;;;;12.55;6.88;;;;;;;10.85;71.23;99333.53;4972636;28;20050;-76
2023/11/08 06:48:01;;;;;;;9.02;6.00;;;;;;;10.86;70.85;99345.75;4956339;28;20050;-77
2023/11/08 06:50:31;;;;;;;10.40;6.10;;;;;;;10.85;70.95;99339.66;4966385;28;20098;-76
2023/11/08 06:52:57;;;;;;;8.38;5.68;;;;;;;10.87;71.01;99340.41;4953429;28;20475;-76
2023/11/08 06:55:24;;;;;;;10.55;5.68;;;;;;;10.88;71.08;99349.97;4953906;28;20055;-76
2023/11/08 06:58:04;;;;;;;11.48;6.25;;;;;;;10.88;71.00;99352.59;4952140;28;20054;-76
2023/11/08 07:00:33;;;;;;;10.38;6.35;;;;;;;10.90;71.14;99352.50;4953017;28;20049;-77
2023/11/08 07:03:00;;;;;;;10.98;5.82;;;;;;;10.89;71.14;99354.31;4952960;28;20204;-78
2023/11/08 07:05:27;;;;;;;9.65;6.80;;;;;;;10.90;71.10;99360.41;4954096;28;20047;-76
2023/11/08 07:08:03;;;;;;;8.55;5.63;;;;;;;10.90;71.01;99356.00;4963358;28;20128;-76
2023/11/08 07:10:30;;;;;;;11.13;5.75;;;;;;;10.91;70.97;99365.59;4967812;28;20074;-76
2023/11/08 07:12:57;;;;;;;16.35;6.25;;;;;;;10.92;70.95;99363.81;4953594;28;20055;-77
2023/11/08 07:15:24;;;;;;;7.97;5.63;;;;;;;10.92;71.03;99359.38;4953661;28;20113;-76
2023/11/08 07:17:51;;;;;;;10.43;6.25;;;;;;;10.94;70.90;99359.28;4953552;28;20495;-76
2023/11/08 07:20:18;;;;;;;11.07;6.38;;;;;;;10.95;70.94;99371.47;4958100;28;20062;-76
2023/11/08 07:22:44;;;;;;;8.25;5.40;;;;;;;10.95;70.92;99371.47;4965602;28;20051;-78
2023/11/08 07:25:11;;;;;;;13.32;6.55;;;;;;;10.96;70.87;99367.94;4971796;28;20491;-77
2023/11/08 07:27:38;;;;;;;9.32;5.60;;;;;;;10.97;70.66;99374.88;4971975;28;20074;-76
2023/11/08 07:30:09;;;;;;;14.40;6.00;;;;;;;10.97;70.87;99382.78;4962914;28;20059;-81
2023/11/08 07:32:38;;;;;;;10.18;5.45;;;;;;;10.98;70.85;99384.47;4953094;28;20575;-77
2023/11/08 07:35:06;;;;;;;16.63;5.65;;;;;;;10.99;70.79;99388.78;4961017;28;20146;-76
2023/11/08 07:37:33;;;;;;;9.52;5.15;;;;;;;10.98;70.75;99389.72;4963839;28;20051;-76
2023/11/08 07:40:00;;;;;;;7.85;5.30;;;;;;;10.99;70.74;99387.94;4972584;28;20062;-76
2023/11/08 07:42:27;;;;;;;9.35;4.97;;;;;;;10.98;70.77;99396.81;4959841;28;20047;-76
2023/11/08 07:44:54;;;;;;;13.23;5.38;;;;;;;10.97;70.79;99390.69;4964472;28;20081;-78
2023/11/08 07:47:21;;;;;;;9.00;4.70;;;;;;;10.99;70.73;99401.94;4965922;28;20554;-76
2023/11/08 07:49:47;;;;;;;16.05;5.32;;;;;;;10.97;70.61;99397.72;4953045;28;20531;-76
2023/11/08 07:52:14;;;;;;;9.25;4.88;;;;;;;10.97;70.81;99392.47;4960921;28;20057;-77
2023/11/08 07:54:40;;;;;;;13.93;4.20;;;;;;;10.97;71.05;99395.94;4951815;28;20493;-76
2023/11/08 07:57:07;;;;;;;10.02;4.68;;;;;;;10.98;70.79;99397.63;4960875;28;20138;-76
2023/11/08 07:59:34;;;;;;;8.73;5.00;;;;;;;10.99;70.69;99391.41;4952940;28;20444;-77
2023/11/08 08:02:01;;;;;;;9.05;4.45;;;;;;;11.01;71.03;99397.44;4954847;28;20114;-78
2023/11/08 08:04:27;;;;;;;8.63;4.45;;;;;;;11.04;70.97;99396.41;4964928;28;20047;-76
2023/11/08 08:06:54;;;;;;;7.07;4.32;;;;;;;11.05;70.69;99393.66;4956815;28;20500;-76
2023/11/08 08:09:21;;;;;;;5.78;4.00;;;;;;;11.10;70.78;99401.25;4957076;28;20132;-75
2023/11/08 08:11:48;;;;;;;6.57;3.63;;;;;;;11.12;70.87;99401.16;4969944;28;20050;-76
2023/11/08 08:14:15;;;;;;;11.68;4.38;;;;;;;11.14;70.64;99401.91;4957944;28;20047;-76
2023/11/08 08:16:44;;;;;;;6.90;3.83;;;;;;;11.15;70.38;99393.06;4956821;28;20051;-76
2023/11/08 08:19:10;;;;;;;9.50;3.90;;;;;;;11.15;70.45;99399.19;4955698;28;20062;-77
2023/11/08 08:21:37;;;;;;;7.95;3.50;;;;;;;11.16;70.16;99395.59;4956369;28;20062;-76
2023/11/08 08:24:04;;;;;;;9.13;4.10;;;;;;;11.17;70.36;99396.44;4956664;28;20487;-79
2023/11/08 08:26:34;;;;;;;6.63;3.05;;;;;;;11.16;70.27;99400.88;4956733;28;20055;-76
2023/11/08 08:29:01;;;;;;;9.57;3.20;;;;;;;11.17;70.20;99392.00;4956692;28;20102;-77
2023/11/08 08:31:28;;;;;;;9.38;3.30;;;;;;;11.17;70.14;99388.53;4956631;28;20042;-76
2023/11/08 08:33:56;;;;;;;7.63;3.45;;;;;;;11.19;70.41;99397.19;4955538;28;20047;-78
2023/11/08 08:36:23;;;;;;;6.40;2.88;;;;;;;11.19;70.06;99410.34;4956656;28;20059;-77
2023/11/08 08:38:50;;;;;;;8.45;2.80;;;;;;;11.20;69.98;99409.41;4969492;28;20043;-76
2023/11/08 08:41:18;;;;;;;7.22;2.83;;;;;;;11.19;70.02;99410.34;4958332;28;20059;-76
2023/11/08 08:43:44;;;;;;;8.98;3.40;;;;;;;11.19;69.92;99405.09;4955176;28;20107;-76
2023/11/08 08:46:11;;;;;;;7.70;2.75;;;;;;;11.20;70.12;99401.50;4956381;28;20090;-76
2023/11/08 08:48:37;;;;;;;8.27;2.53;;;;;;;11.19;70.06;99405.94;4956150;28;20051;-76
2023/11/08 08:51:04;;;;;;;10.32;3.08;;;;;;;11.20;69.98;99401.50;4971066;28;20097;-76
2023/11/08 08:53:31;;;;;;;14.48;3.65;;;;;;;11.22;70.19;99404.91;4955279;28;20106;-76
2023/11/08 08:55:57;;;;;;;6.32;2.22;;;;;;;11.25;70.33;99398.56;4955151;28;20551;-76
2023/11/08 08:58:24;;;;;;;5.70;2.95;;;;;;;11.27;70.18;99399.31;4964076;28;20047;-76
2023/11/08 09:00:50;;;;;;;7.68;2.90;;;;;;;11.29;70.03;99400.06;4955996;28;20043;-78
2023/11/08 09:03:17;;;;;;;9.15;2.75;;;;;;;11.32;69.86;99392.78;4956138;28;20055;-77
2023/11/08 09:05:44;;;;;;;7.78;2.58;;;;;;;11.33;69.78;99399.75;4956115;28;20122;-76
2023/11/08 09:08:10;;;;;;;9.73;2.95;;;;;;;11.36;69.54;99406.59;4954544;28;20142;-76
2023/11/08 09:10:37;;;;;;;8.15;2.22;;;;;;;11.38;69.78;99402.09;4955667;28;20122;-78
2023/11/08 09:13:04;;;;;;;8.00;3.00;;;;;;;11.40;69.42;99404.63;4956130;28;20403;-76
2023/11/08 09:15:32;;;;;;;6.45;3.08;;;;;;;11.40;69.41;99409.91;4955929;28;20082;-77
2023/11/08 09:17:59;;;;;;;4.60;2.80;;;;;;;11.41;69.25;99420.34;4955627;28;20058;-77
2023/11/08 09:20:26;;;;;;;6.15;2.53;;;;;;;11.41;69.33;99420.34;4955167;28;20079;-78
2023/11/08 09:22:52;;;;;;;6.57;2.88;;;;;;;11.44;69.34;99420.13;4955637;28;20122;-75
2023/11/08 09:25:19;;;;;;;6.40;2.05;;;;;;;11.45;69.33;99423.59;4955546;28;20058;-76
2023/11/08 09:27:46;;;;;;;7.85;2.70;;;;;;;11.45;69.23;99424.44;4955419;28;20043;-76
2023/11/08 09:30:13;;;;;;;7.13;2.28;;;;;;;11.48;69.35;99420.78;4955411;28;20058;-76
2023/11/08 09:32:39;;;;;;;6.78;2.25;;;;;;;11.50;69.29;99418.88;4958844;28;20039;-76
2023/11/08 09:35:06;;;;;;;4.45;2.15;;;;;;;11.53;69.16;99429.22;4967157;28;20134;-75
2023/11/08 09:37:33;;;;;;;6.03;2.47;;;;;;;11.55;69.11;99429.94;4955347;28;20468;-78
2023/11/08 09:40:00;;;;;;;6.72;2.75;;;;;;;11.59;69.21;99426.16;4955289;28;20043;-75
2023/11/08 09:42:29;;;;;;;6.57;2.22;;;;;;;11.60;68.76;99430.47;4970562;28;20097;-78
2023/11/08 09:45:00;;;;;;;5.45;2.20;;;;;;;11.63;68.95;99418.06;4955169;28;20078;-76
2023/11/08 09:47:27;;;;;;;4.75;2.03;;;;;;;11.66;69.08;99416.06;4962907;28;20082;-76
2023/11/08 09:49:54;;;;;;;5.93;1.98;;;;;;;11.69;69.09;99418.50;4960192;28;20051;-76
2023/11/08 09:52:23;;;;;;;8.20;2.10;;;;;;;11.72;68.77;99413.03;4963668;28;20507;-76
2023/11/08 09:54:49;;;;;;;8.95;2.17;;;;;;;11.77;69.02;99409.22;4954856;28;20039;-76
2023/11/08 09:57:17;;;;;;;4.68;1.92;;;;;;;11.81;68.47;99411.53;4954506;28;20515;-76
2023/11/08 09:59:44;;;;;;;11.20;2.53;;;;;;;11.86;68.75;99408.59;4966454;28;20101;-79
2023/11/08 10:02:12;;;;;;;8.65;2.03;;;;;;;11.91;68.65;99405.63;4958192;28;20047;-76
2023/11/08 10:04:41;;;;;;;9.07;2.20;;;;;;;11.95;68.63;99404.47;4954924;28;20039;-77
2023/11/08 10:07:12;;;;;;;3.95;2.10;;;;;;;12.01;68.30;99408.50;4953722;28;20051;-76
2023/11/08 10:09:39;;;;;;;6.40;1.95;;;;;;;12.03;68.11;99409.25;4954694;28;20051;-77
2023/11/08 10:12:08;;;;;;;5.57;2.10;;;;;;;12.04;68.01;99401.19;4961120;28;20055;-76
2023/11/08 10:14:40;;;;;;;7.97;2.28;;;;;;;12.04;67.45;99398.56;4962937;28;20516;-77
2023/11/08 10:17:08;;;;;;;4.60;1.98;;;;;;;12.08;67.96;99404.53;4954551;28;20066;-78
2023/11/08 10:19:55;;;;;;;6.15;2.10;;;;;;;12.11;67.82;99399.88;4954774;28;20051;-76
2023/11/08 10:22:25;;;;;;;4.13;2.10;;;;;;;12.15;67.82;99402.31;4954867;28;20059;-76
2023/11/08 10:24:54;;;;;;;6.40;2.22;;;;;;;12.17;67.52;99397.75;4953094;28;20057;-79
2023/11/08 10:27:22;;;;;;;8.32;2.58;;;;;;;12.20;67.36;99392.25;4954743;28;20154;-76
2023/11/08 10:29:50;;;;;;;9.50;2.08;;;;;;;12.23;67.68;99389.41;4961270;28;20043;-76
2023/11/08 10:32:23;;;;;;;4.63;1.63;;;;;;;12.26;67.21;99383.91;4954524;28;20134;-78
2023/11/08 10:34:53;;;;;;;7.10;3.00;;;;;;;12.32;67.30;99382.63;4966136;28;20047;-76
2023/11/08 10:37:24;;;;;;;3.83;1.88;;;;;;;12.39;67.35;99383.91;4972438;28;20566;-76
2023/11/08 10:39:57;;;;;;;9.55;2.35;;;;;;;12.47;67.25;99375.44;4972609;28;20050;-79
2023/11/08 10:42:26;;;;;;;4.95;1.90;;;;;;;12.57;67.76;99373.84;4972087;28;20047;-76
2023/11/08 10:45:07;;;;;;;3.45;2.10;;;;;;;12.62;66.45;99371.69;4972591;28;20074;-77
2023/11/08 10:47:36;;;;;;;9.38;2.35;;;;;;;12.71;66.61;99374.63;4971157;28;20051;-77
2023/11/08 10:50:06;;;;;;;4.78;2.00;;;;;;;12.79;66.91;99361.72;4966921;28;20118;-79
2023/11/08 10:52:39;;;;;;;4.82;2.17;;;;;;;12.82;66.21;99348.28;4954309;28;20386;-76
2023/11/08 10:55:06;;;;;;;4.97;1.75;;;;;;;12.89;66.57;99356.59;4959362;28;20054;-78
2023/11/08 10:57:34;;;;;;;4.63;1.90;;;;;;;12.93;66.53;99347.47;4955597;28;20047;-76
2023/11/08 11:00:04;;;;;;;6.05;2.17;;;;;;;12.97;66.59;99350.75;4959639;28;20055;-76
2023/11/08 11:02:40;;;;;;;5.57;1.63;;;;;;;13.01;66.49;99352.22;4954141;28;20047;-77
2023/11/08 11:05:10;;;;;;;5.35;2.10;;;;;;;13.08;66.10;99347.31;4967378;28;20058;-77
2023/11/08 11:07:41;;;;;;;12.40;2.40;;;;;;;13.16;66.44;99356.34;4954578;28;20083;-77
2023/11/08 11:10:09;;;;;;;11.50;2.20;;;;;;;13.29;67.86;99344.88;4952457;28;20054;-76
2023/11/08 11:13:04;;;;;;;3.50;2.00;;;;;;;13.42;66.21;99342.97;4953956;28;20054;-76
2023/11/08 11:16:06;;;;;;;8.15;1.90;;;;;;;13.62;64.91;99345.94;4952935;28;20130;-77
2023/11/08 11:18:53;;;;;;;7.03;2.53;;;;;;;13.85;65.32;99335.38;4953524;28;20152;-77
2023/11/08 11:21:39;;;;;;;6.95;2.13;;;;;;;14.10;63.61;99348.50;4953256;28;20087;-77
2023/11/08 11:24:48;;;;;;;5.05;2.10;;;;;;;14.34;63.68;99345.72;4966322;28;20096;-77
2023/11/08 11:27:33;;;;;;;5.35;2.20;;;;;;;14.55;61.24;99337.03;4971750;28;20696;-78
2023/11/08 11:30:18;;;;;;;4.90;2.05;;;;;;;14.68;61.81;99337.72;4972473;28;20132;-79
2023/11/08 11:32:48;;;;;;;6.53;2.08;;;;;;;14.88;64.61;99335.25;4971657;28;20051;-76